sensor_id;sensor_type;location;lat;lon;timestamp;pressure;altitude;pressure_sealevel;temperature
18782;BMP180;9519;51.890;8.970;2023-01-08T00:02:33;98213.00;;;8.00
18782;BMP180;9519;51.890;8.970;2023-01-08T00:07:37;98216.00;;;8.00
18782;BMP180;9519;51.890;8.970;2023-01-08T00:12:50;98211.00;;;8.00
18782;BMP180;9519;51.890;8.970;2023-01-08T00:17:52;98206.00;;;8.00
18782;BMP180;9519;51.890;8.970;2023-01-08T00:22:56;98209.00;;;8.00
18782;BMP180;9519;51.890;8.970;2023-01-08T00:27:58;98210.00;;;8.00
18782;BMP180;9519;51.890;8.970;2023-01-08T00:33:00;98225.00;;;8.00
18782;BMP180;9519;51.890;8.970;2023-01-08T00:38:04;98206.00;;;8.00
18782;BMP180;9519;51.890;8.970;2023-01-08T00:43:06;98201.00;;;8.00
18782;BMP180;9519;51.890;8.970;2023-01-08T00:48:09;98192.00;;;8.10
18782;BMP180;9519;51.890;8.970;2023-01-08T00:53:13;98183.00;;;8.10
18782;BMP180;9519;51.890;8.970;2023-01-08T00:58:15;98186.00;;;8.10
18782;BMP180;9519;51.890;8.970;2023-01-08T01:03:17;98185.00;;;8.10
18782;BMP180;9519;51.890;8.970;2023-01-08T01:08:21;98184.00;;;8.10
18782;BMP180;9519;51.890;8.970;2023-01-08T01:13:23;98184.00;;;8.10
18782;BMP180;9519;51.890;8.970;2023-01-08T01:18:25;98190.00;;;8.10
18782;BMP180;9519;51.890;8.970;2023-01-08T01:23:29;98171.00;;;8.10
18782;BMP180;9519;51.890;8.970;2023-01-08T01:28:31;98154.00;;;8.10
18782;BMP180;9519;51.890;8.970;2023-01-08T01:33:33;98170.00;;;8.20
18782;BMP180;9519;51.890;8.970;2023-01-08T01:38:37;98159.00;;;8.20
18782;BMP180;9519;51.890;8.970;2023-01-08T01:43:42;98176.00;;;8.20
18782;BMP180;9519;51.890;8.970;2023-01-08T01:48:45;98175.00;;;8.30
18782;BMP180;9519;51.890;8.970;2023-01-08T01:53:50;98159.00;;;8.30
18782;BMP180;9519;51.890;8.970;2023-01-08T01:58:52;98178.00;;;8.50
18782;BMP180;9519;51.890;8.970;2023-01-08T02:03:54;98175.00;;;8.60
18782;BMP180;9519;51.890;8.970;2023-01-08T02:09:02;98170.00;;;8.70
18782;BMP180;9519;51.890;8.970;2023-01-08T02:14:15;98159.00;;;8.80
18782;BMP180;9519;51.890;8.970;2023-01-08T02:19:33;98148.00;;;8.90
18782;BMP180;9519;51.890;8.970;2023-01-08T02:24:52;98157.00;;;9.00
18782;BMP180;9519;51.890;8.970;2023-01-08T02:29:56;98163.00;;;9.00
18782;BMP180;9519;51.890;8.970;2023-01-08T02:34:59;98164.00;;;9.10
18782;BMP180;9519;51.890;8.970;2023-01-08T02:40:10;98168.00;;;9.10
18782;BMP180;9519;51.890;8.970;2023-01-08T02:45:30;98153.00;;;9.20
18782;BMP180;9519;51.890;8.970;2023-01-08T02:50:41;98164.00;;;9.20
18782;BMP180;9519;51.890;8.970;2023-01-08T02:55:49;98158.00;;;9.20
18782;BMP180;9519;51.890;8.970;2023-01-08T03:00:54;98157.00;;;9.30
18782;BMP180;9519;51.890;8.970;2023-01-08T03:06:01;98148.00;;;9.30
18782;BMP180;9519;51.890;8.970;2023-01-08T03:11:07;98155.00;;;9.30
18782;BMP180;9519;51.890;8.970;2023-01-08T03:16:16;98142.00;;;9.30
18782;BMP180;9519;51.890;8.970;2023-01-08T03:21:21;98132.00;;;9.40
18782;BMP180;9519;51.890;8.970;2023-01-08T03:26:25;98133.00;;;9.30
18782;BMP180;9519;51.890;8.970;2023-01-08T03:36:47;98143.00;;;9.40
18782;BMP180;9519;51.890;8.970;2023-01-08T03:41:55;98143.00;;;9.40
18782;BMP180;9519;51.890;8.970;2023-01-08T03:47:02;98131.00;;;9.50
18782;BMP180;9519;51.890;8.970;2023-01-08T03:52:05;98109.00;;;9.40
18782;BMP180;9519;51.890;8.970;2023-01-08T03:57:07;98101.00;;;9.30
18782;BMP180;9519;51.890;8.970;2023-01-08T04:02:11;98102.00;;;9.20
18782;BMP180;9519;51.890;8.970;2023-01-08T04:07:13;98097.00;;;9.10
18782;BMP180;9519;51.890;8.970;2023-01-08T04:12:15;98092.00;;;9.00
18782;BMP180;9519;51.890;8.970;2023-01-08T04:17:18;98087.00;;;8.90
18782;BMP180;9519;51.890;8.970;2023-01-08T04:22:21;98081.00;;;8.90
18782;BMP180;9519;51.890;8.970;2023-01-08T04:27:23;98080.00;;;8.80
18782;BMP180;9519;51.890;8.970;2023-01-08T04:32:26;98072.00;;;8.70
18782;BMP180;9519;51.890;8.970;2023-01-08T04:37:28;98074.00;;;8.60
18782;BMP180;9519;51.890;8.970;2023-01-08T04:42:30;98062.00;;;8.60
18782;BMP180;9519;51.890;8.970;2023-01-08T04:47:33;98072.00;;;8.50
18782;BMP180;9519;51.890;8.970;2023-01-08T04:52:36;98058.00;;;8.50
18782;BMP180;9519;51.890;8.970;2023-01-08T04:57:38;98057.00;;;8.40
18782;BMP180;9519;51.890;8.970;2023-01-08T05:02:41;98045.00;;;8.40
18782;BMP180;9519;51.890;8.970;2023-01-08T05:07:43;98044.00;;;8.30
18782;BMP180;9519;51.890;8.970;2023-01-08T05:12:45;98048.00;;;8.30
18782;BMP180;9519;51.890;8.970;2023-01-08T05:17:56;98044.00;;;8.30
18782;BMP180;9519;51.890;8.970;2023-01-08T05:22:59;98051.00;;;8.20
18782;BMP180;9519;51.890;8.970;2023-01-08T05:28:01;98033.00;;;8.20
18782;BMP180;9519;51.890;8.970;2023-01-08T05:33:04;98041.00;;;8.20
18782;BMP180;9519;51.890;8.970;2023-01-08T05:38:07;98045.00;;;8.20
18782;BMP180;9519;51.890;8.970;2023-01-08T05:43:09;98040.00;;;8.20
18782;BMP180;9519;51.890;8.970;2023-01-08T05:48:12;98026.00;;;8.20
18782;BMP180;9519;51.890;8.970;2023-01-08T05:53:14;98027.00;;;8.20
18782;BMP180;9519;51.890;8.970;2023-01-08T05:58:16;98021.00;;;8.20
18782;BMP180;9519;51.890;8.970;2023-01-08T06:03:21;98024.00;;;8.20
18782;BMP180;9519;51.890;8.970;2023-01-08T06:08:23;98011.00;;;8.10
18782;BMP180;9519;51.890;8.970;2023-01-08T06:13:26;98006.00;;;8.10
18782;BMP180;9519;51.890;8.970;2023-01-08T06:18:29;98007.00;;;8.10
18782;BMP180;9519;51.890;8.970;2023-01-08T06:23:32;98014.00;;;8.10
18782;BMP180;9519;51.890;8.970;2023-01-08T06:28:34;98008.00;;;8.10
18782;BMP180;9519;51.890;8.970;2023-01-08T06:33:38;98024.00;;;8.10
18782;BMP180;9519;51.890;8.970;2023-01-08T06:38:40;98022.00;;;8.10
18782;BMP180;9519;51.890;8.970;2023-01-08T06:43:42;98024.00;;;8.10
18782;BMP180;9519;51.890;8.970;2023-01-08T06:48:45;98015.00;;;8.10
18782;BMP180;9519;51.890;8.970;2023-01-08T06:53:47;98021.00;;;8.10
18782;BMP180;9519;51.890;8.970;2023-01-08T06:58:50;98014.00;;;8.10
18782;BMP180;9519;51.890;8.970;2023-01-08T07:03:54;98029.00;;;8.10
18782;BMP180;9519;51.890;8.970;2023-01-08T07:08:56;98024.00;;;8.10
18782;BMP180;9519;51.890;8.970;2023-01-08T07:13:58;98027.00;;;8.10
18782;BMP180;9519;51.890;8.970;2023-01-08T07:19:02;98035.00;;;8.10
18782;BMP180;9519;51.890;8.970;2023-01-08T07:24:05;98034.00;;;8.10
18782;BMP180;9519;51.890;8.970;2023-01-08T07:29:07;98026.00;;;8.20
18782;BMP180;9519;51.890;8.970;2023-01-08T07:34:11;98014.00;;;8.20
18782;BMP180;9519;51.890;8.970;2023-01-08T07:39:13;98004.00;;;8.20
18782;BMP180;9519;51.890;8.970;2023-01-08T07:44:15;98009.00;;;8.20
18782;BMP180;9519;51.890;8.970;2023-01-08T07:49:18;98006.00;;;8.10
18782;BMP180;9519;51.890;8.970;2023-01-08T07:54:20;98007.00;;;8.10
18782;BMP180;9519;51.890;8.970;2023-01-08T07:59:22;98009.00;;;8.10
18782;BMP180;9519;51.890;8.970;2023-01-08T08:04:25;98003.00;;;8.20
18782;BMP180;9519;51.890;8.970;2023-01-08T08:09:28;97997.00;;;8.10
18782;BMP180;9519;51.890;8.970;2023-01-08T08:14:30;97992.00;;;8.20
18782;BMP180;9519;51.890;8.970;2023-01-08T08:19:33;97994.00;;;8.20
18782;BMP180;9519;51.890;8.970;2023-01-08T08:24:35;97983.00;;;8.20
18782;BMP180;9519;51.890;8.970;2023-01-08T08:29:37;97985.00;;;8.20
18782;BMP180;9519;51.890;8.970;2023-01-08T08:34:41;97979.00;;;8.20
18782;BMP180;9519;51.890;8.970;2023-01-08T08:39:45;97980.00;;;8.20
18782;BMP180;9519;51.890;8.970;2023-01-08T08:44:47;97979.00;;;8.20
18782;BMP180;9519;51.890;8.970;2023-01-08T08:49:50;97967.00;;;8.10
18782;BMP180;9519;51.890;8.970;2023-01-08T08:54:52;97983.00;;;8.10
18782;BMP180;9519;51.890;8.970;2023-01-08T08:59:54;97980.00;;;8.10
18782;BMP180;9519;51.890;8.970;2023-01-08T09:04:57;97963.00;;;8.10
18782;BMP180;9519;51.890;8.970;2023-01-08T09:10:00;97956.00;;;8.10
18782;BMP180;9519;51.890;8.970;2023-01-08T09:15:02;97960.00;;;8.00
18782;BMP180;9519;51.890;8.970;2023-01-08T09:20:08;97964.00;;;8.10
18782;BMP180;9519;51.890;8.970;2023-01-08T09:25:10;97962.00;;;8.10
18782;BMP180;9519;51.890;8.970;2023-01-08T09:30:12;97949.00;;;8.10
18782;BMP180;9519;51.890;8.970;2023-01-08T09:35:15;97964.00;;;8.20
18782;BMP180;9519;51.890;8.970;2023-01-08T09:40:20;97978.00;;;8.20
18782;BMP180;9519;51.890;8.970;2023-01-08T09:45:26;97977.00;;;8.20
18782;BMP180;9519;51.890;8.970;2023-01-08T09:50:30;97974.00;;;8.30
18782;BMP180;9519;51.890;8.970;2023-01-08T09:55:33;97976.00;;;8.30
18782;BMP180;9519;51.890;8.970;2023-01-08T10:00:35;97927.00;;;8.40
18782;BMP180;9519;51.890;8.970;2023-01-08T10:05:39;97942.00;;;8.40
18782;BMP180;9519;51.890;8.970;2023-01-08T10:10:42;97956.00;;;8.40
18782;BMP180;9519;51.890;8.970;2023-01-08T10:15:47;97932.00;;;8.40
18782;BMP180;9519;51.890;8.970;2023-01-08T10:20:50;97936.00;;;8.50
18782;BMP180;9519;51.890;8.970;2023-01-08T10:25:55;97949.00;;;8.50
18782;BMP180;9519;51.890;8.970;2023-01-08T10:31:04;97950.00;;;8.50
18782;BMP180;9519;51.890;8.970;2023-01-08T10:36:12;97948.00;;;8.60
18782;BMP180;9519;51.890;8.970;2023-01-08T10:41:16;97940.00;;;8.60
18782;BMP180;9519;51.890;8.970;2023-01-08T10:46:22;97949.00;;;8.70
18782;BMP180;9519;51.890;8.970;2023-01-08T10:51:29;97944.00;;;8.70
18782;BMP180;9519;51.890;8.970;2023-01-08T10:56:41;97941.00;;;8.70
18782;BMP180;9519;51.890;8.970;2023-01-08T11:01:46;97922.00;;;8.80
18782;BMP180;9519;51.890;8.970;2023-01-08T11:06:49;97927.00;;;8.80
18782;BMP180;9519;51.890;8.970;2023-01-08T11:11:52;97921.00;;;8.90
18782;BMP180;9519;51.890;8.970;2023-01-08T11:16:55;97930.00;;;8.80
18782;BMP180;9519;51.890;8.970;2023-01-08T11:22:01;97929.00;;;8.80
18782;BMP180;9519;51.890;8.970;2023-01-08T11:27:10;97928.00;;;8.80
18782;BMP180;9519;51.890;8.970;2023-01-08T11:32:36;97914.00;;;8.90
18782;BMP180;9519;51.890;8.970;2023-01-08T11:37:49;97931.00;;;8.90
18782;BMP180;9519;51.890;8.970;2023-01-08T11:43:15;97910.00;;;9.00
18782;BMP180;9519;51.890;8.970;2023-01-08T11:48:40;97894.00;;;9.00
18782;BMP180;9519;51.890;8.970;2023-01-08T11:54:00;97887.00;;;9.00
18782;BMP180;9519;51.890;8.970;2023-01-08T11:59:17;97876.00;;;9.00
18782;BMP180;9519;51.890;8.970;2023-01-08T12:04:52;97882.00;;;9.10
18782;BMP180;9519;51.890;8.970;2023-01-08T12:10:12;97861.00;;;9.10
18782;BMP180;9519;51.890;8.970;2023-01-08T12:15:24;97858.00;;;9.20
18782;BMP180;9519;51.890;8.970;2023-01-08T12:20:36;97848.00;;;9.30
18782;BMP180;9519;51.890;8.970;2023-01-08T12:26:08;97837.00;;;9.50
18782;BMP180;9519;51.890;8.970;2023-01-08T12:31:44;97838.00;;;9.60
18782;BMP180;9519;51.890;8.970;2023-01-08T12:36:54;97821.00;;;9.60
18782;BMP180;9519;51.890;8.970;2023-01-08T12:42:10;97828.00;;;9.70
18782;BMP180;9519;51.890;8.970;2023-01-08T12:47:19;97817.00;;;9.70
18782;BMP180;9519;51.890;8.970;2023-01-08T12:52:31;97803.00;;;9.80
18782;BMP180;9519;51.890;8.970;2023-01-08T12:57:46;97796.00;;;9.80
18782;BMP180;9519;51.890;8.970;2023-01-08T13:02:56;97804.00;;;9.80
18782;BMP180;9519;51.890;8.970;2023-01-08T13:08:03;97793.00;;;9.80
18782;BMP180;9519;51.890;8.970;2023-01-08T13:13:25;97783.00;;;9.90
18782;BMP180;9519;51.890;8.970;2023-01-08T13:18:27;97768.00;;;9.90
18782;BMP180;9519;51.890;8.970;2023-01-08T13:23:32;97782.00;;;9.90
18782;BMP180;9519;51.890;8.970;2023-01-08T13:28:43;97770.00;;;9.90
18782;BMP180;9519;51.890;8.970;2023-01-08T13:33:47;97760.00;;;9.90
18782;BMP180;9519;51.890;8.970;2023-01-08T13:39:05;97727.00;;;9.90
18782;BMP180;9519;51.890;8.970;2023-01-08T13:44:27;97745.00;;;9.90
18782;BMP180;9519;51.890;8.970;2023-01-08T13:49:35;97745.00;;;9.90
18782;BMP180;9519;51.890;8.970;2023-01-08T13:54:42;97743.00;;;10.00
18782;BMP180;9519;51.890;8.970;2023-01-08T13:59:55;97737.00;;;10.00
18782;BMP180;9519;51.890;8.970;2023-01-08T14:05:00;97734.00;;;9.90
18782;BMP180;9519;51.890;8.970;2023-01-08T14:10:08;97735.00;;;9.90
18782;BMP180;9519;51.890;8.970;2023-01-08T14:15:21;97722.00;;;9.90
18782;BMP180;9519;51.890;8.970;2023-01-08T14:20:31;97736.00;;;9.80
18782;BMP180;9519;51.890;8.970;2023-01-08T14:25:33;97725.00;;;9.70
18782;BMP180;9519;51.890;8.970;2023-01-08T14:30:46;97726.00;;;9.70
18782;BMP180;9519;51.890;8.970;2023-01-08T14:35:49;97717.00;;;9.60
18782;BMP180;9519;51.890;8.970;2023-01-08T14:40:59;97712.00;;;9.60
18782;BMP180;9519;51.890;8.970;2023-01-08T14:46:12;97699.00;;;9.60
18782;BMP180;9519;51.890;8.970;2023-01-08T14:51:23;97700.00;;;9.60
18782;BMP180;9519;51.890;8.970;2023-01-08T14:56:29;97701.00;;;9.50
18782;BMP180;9519;51.890;8.970;2023-01-08T15:01:34;97687.00;;;9.50
18782;BMP180;9519;51.890;8.970;2023-01-08T15:06:36;97681.00;;;9.50
18782;BMP180;9519;51.890;8.970;2023-01-08T15:11:50;97664.00;;;9.40
18782;BMP180;9519;51.890;8.970;2023-01-08T15:16:57;97684.00;;;9.40
18782;BMP180;9519;51.890;8.970;2023-01-08T15:22:00;97685.00;;;9.30
18782;BMP180;9519;51.890;8.970;2023-01-08T15:27:03;97686.00;;;9.30
18782;BMP180;9519;51.890;8.970;2023-01-08T15:32:21;97670.00;;;9.20
18782;BMP180;9519;51.890;8.970;2023-01-08T15:37:23;97674.00;;;9.20
18782;BMP180;9519;51.890;8.970;2023-01-08T15:42:28;97663.00;;;9.10
18782;BMP180;9519;51.890;8.970;2023-01-08T15:47:49;97667.00;;;9.10
18782;BMP180;9519;51.890;8.970;2023-01-08T15:52:52;97672.00;;;9.00
18782;BMP180;9519;51.890;8.970;2023-01-08T15:57:56;97667.00;;;9.00
18782;BMP180;9519;51.890;8.970;2023-01-08T16:02:59;97651.00;;;8.90
18782;BMP180;9519;51.890;8.970;2023-01-08T16:08:03;97656.00;;;8.90
18782;BMP180;9519;51.890;8.970;2023-01-08T16:13:05;97658.00;;;8.80
18782;BMP180;9519;51.890;8.970;2023-01-08T16:18:09;97675.00;;;8.80
18782;BMP180;9519;51.890;8.970;2023-01-08T16:23:11;97694.00;;;8.80
18782;BMP180;9519;51.890;8.970;2023-01-08T16:28:14;97689.00;;;8.80
18782;BMP180;9519;51.890;8.970;2023-01-08T16:33:18;97684.00;;;8.80
18782;BMP180;9519;51.890;8.970;2023-01-08T16:38:20;97683.00;;;8.80
18782;BMP180;9519;51.890;8.970;2023-01-08T16:43:29;97688.00;;;8.70
18782;BMP180;9519;51.890;8.970;2023-01-08T16:48:32;97678.00;;;8.70
18782;BMP180;9519;51.890;8.970;2023-01-08T16:53:35;97673.00;;;8.60
18782;BMP180;9519;51.890;8.970;2023-01-08T16:58:38;97668.00;;;8.50
18782;BMP180;9519;51.890;8.970;2023-01-08T17:03:41;97652.00;;;8.40
18782;BMP180;9519;51.890;8.970;2023-01-08T17:08:43;97662.00;;;8.30
18782;BMP180;9519;51.890;8.970;2023-01-08T17:13:46;97660.00;;;8.20
18782;BMP180;9519;51.890;8.970;2023-01-08T17:18:50;97649.00;;;8.10
18782;BMP180;9519;51.890;8.970;2023-01-08T17:23:52;97645.00;;;8.10
18782;BMP180;9519;51.890;8.970;2023-01-08T17:28:54;97640.00;;;8.00
18782;BMP180;9519;51.890;8.970;2023-01-08T17:33:57;97628.00;;;8.00
18782;BMP180;9519;51.890;8.970;2023-01-08T17:39:00;97630.00;;;7.90
18782;BMP180;9519;51.890;8.970;2023-01-08T17:44:02;97643.00;;;7.80
18782;BMP180;9519;51.890;8.970;2023-01-08T17:49:08;97621.00;;;7.70
18782;BMP180;9519;51.890;8.970;2023-01-08T17:54:14;97613.00;;;7.60
18782;BMP180;9519;51.890;8.970;2023-01-08T17:59:17;97619.00;;;7.60
18782;BMP180;9519;51.890;8.970;2023-01-08T18:04:21;97613.00;;;7.50
18782;BMP180;9519;51.890;8.970;2023-01-08T18:09:23;97609.00;;;7.40
18782;BMP180;9519;51.890;8.970;2023-01-08T18:14:26;97602.00;;;7.40
18782;BMP180;9519;51.890;8.970;2023-01-08T18:19:29;97586.00;;;7.30
18782;BMP180;9519;51.890;8.970;2023-01-08T18:24:32;97584.00;;;7.20
18782;BMP180;9519;51.890;8.970;2023-01-08T18:29:34;97590.00;;;7.20
18782;BMP180;9519;51.890;8.970;2023-01-08T18:34:38;97597.00;;;7.10
18782;BMP180;9519;51.890;8.970;2023-01-08T18:39:40;97589.00;;;7.10
18782;BMP180;9519;51.890;8.970;2023-01-08T18:44:42;97583.00;;;7.10
18782;BMP180;9519;51.890;8.970;2023-01-08T18:49:45;97575.00;;;7.00
18782;BMP180;9519;51.890;8.970;2023-01-08T18:54:47;97573.00;;;6.90
18782;BMP180;9519;51.890;8.970;2023-01-08T18:59:49;97571.00;;;6.90
18782;BMP180;9519;51.890;8.970;2023-01-08T19:04:53;97560.00;;;6.90
18782;BMP180;9519;51.890;8.970;2023-01-08T19:09:55;97555.00;;;6.80
18782;BMP180;9519;51.890;8.970;2023-01-08T19:14:57;97550.00;;;6.70
18782;BMP180;9519;51.890;8.970;2023-01-08T19:20:02;97547.00;;;6.60
18782;BMP180;9519;51.890;8.970;2023-01-08T19:25:05;97555.00;;;6.60
18782;BMP180;9519;51.890;8.970;2023-01-08T19:30:11;97542.00;;;6.50
18782;BMP180;9519;51.890;8.970;2023-01-08T19:35:15;97517.00;;;6.50
18782;BMP180;9519;51.890;8.970;2023-01-08T19:40:17;97521.00;;;6.40
18782;BMP180;9519;51.890;8.970;2023-01-08T19:45:19;97500.00;;;6.30
18782;BMP180;9519;51.890;8.970;2023-01-08T19:50:22;97480.00;;;6.30
18782;BMP180;9519;51.890;8.970;2023-01-08T19:55:25;97470.00;;;6.30
18782;BMP180;9519;51.890;8.970;2023-01-08T20:00:27;97473.00;;;6.30
18782;BMP180;9519;51.890;8.970;2023-01-08T20:05:31;97482.00;;;6.30
18782;BMP180;9519;51.890;8.970;2023-01-08T20:10:33;97479.00;;;6.30
18782;BMP180;9519;51.890;8.970;2023-01-08T20:15:35;97470.00;;;6.20
18782;BMP180;9519;51.890;8.970;2023-01-08T20:20:38;97451.00;;;6.20
18782;BMP180;9519;51.890;8.970;2023-01-08T20:25:40;97439.00;;;6.10
18782;BMP180;9519;51.890;8.970;2023-01-08T20:30:42;97435.00;;;6.10
18782;BMP180;9519;51.890;8.970;2023-01-08T20:35:45;97420.00;;;6.10
18782;BMP180;9519;51.890;8.970;2023-01-08T20:40:50;97396.00;;;6.00
18782;BMP180;9519;51.890;8.970;2023-01-08T20:45:54;97418.00;;;6.00
18782;BMP180;9519;51.890;8.970;2023-01-08T20:51:00;97439.00;;;6.00
18782;BMP180;9519;51.890;8.970;2023-01-08T20:56:05;97420.00;;;6.00
18782;BMP180;9519;51.890;8.970;2023-01-08T21:01:10;97424.00;;;6.00
18782;BMP180;9519;51.890;8.970;2023-01-08T21:06:18;97414.00;;;6.00
18782;BMP180;9519;51.890;8.970;2023-01-08T21:11:21;97400.00;;;6.00
18782;BMP180;9519;51.890;8.970;2023-01-08T21:16:26;97401.00;;;6.00
18782;BMP180;9519;51.890;8.970;2023-01-08T21:21:33;97381.00;;;6.00
18782;BMP180;9519;51.890;8.970;2023-01-08T21:26:36;97356.00;;;6.00
18782;BMP180;9519;51.890;8.970;2023-01-08T21:31:38;97354.00;;;6.00
18782;BMP180;9519;51.890;8.970;2023-01-08T21:36:42;97348.00;;;6.00
18782;BMP180;9519;51.890;8.970;2023-01-08T21:41:44;97344.00;;;6.00
18782;BMP180;9519;51.890;8.970;2023-01-08T21:47:06;97346.00;;;6.10
18782;BMP180;9519;51.890;8.970;2023-01-08T21:52:10;97315.00;;;6.10
18782;BMP180;9519;51.890;8.970;2023-01-08T21:57:29;97335.00;;;6.10
18782;BMP180;9519;51.890;8.970;2023-01-08T22:02:38;97322.00;;;6.20
18782;BMP180;9519;51.890;8.970;2023-01-08T22:07:41;97299.00;;;6.20
18782;BMP180;9519;51.890;8.970;2023-01-08T22:12:43;97293.00;;;6.30
18782;BMP180;9519;51.890;8.970;2023-01-08T22:17:45;97289.00;;;6.30
18782;BMP180;9519;51.890;8.970;2023-01-08T22:22:49;97270.00;;;6.40
18782;BMP180;9519;51.890;8.970;2023-01-08T22:27:51;97271.00;;;6.50
18782;BMP180;9519;51.890;8.970;2023-01-08T22:32:55;97276.00;;;6.50
18782;BMP180;9519;51.890;8.970;2023-01-08T22:37:58;97236.00;;;6.50
18782;BMP180;9519;51.890;8.970;2023-01-08T22:43:00;97249.00;;;6.60
18782;BMP180;9519;51.890;8.970;2023-01-08T22:48:02;97244.00;;;6.60
18782;BMP180;9519;51.890;8.970;2023-01-08T22:53:06;97253.00;;;6.70
18782;BMP180;9519;51.890;8.970;2023-01-08T22:58:08;97246.00;;;6.70
18782;BMP180;9519;51.890;8.970;2023-01-08T23:03:10;97255.00;;;6.70
18782;BMP180;9519;51.890;8.970;2023-01-08T23:08:14;97229.00;;;6.80
18782;BMP180;9519;51.890;8.970;2023-01-08T23:13:16;97234.00;;;6.80
18782;BMP180;9519;51.890;8.970;2023-01-08T23:18:18;97227.00;;;6.90
18782;BMP180;9519;51.890;8.970;2023-01-08T23:23:21;97235.00;;;6.90
18782;BMP180;9519;51.890;8.970;2023-01-08T23:28:23;97231.00;;;6.90
18782;BMP180;9519;51.890;8.970;2023-01-08T23:33:25;97222.00;;;7.00
18782;BMP180;9519;51.890;8.970;2023-01-08T23:38:29;97222.00;;;7.00
18782;BMP180;9519;51.890;8.970;2023-01-08T23:43:31;97201.00;;;7.10
18782;BMP180;9519;51.890;8.970;2023-01-08T23:48:33;97211.00;;;7.10
18782;BMP180;9519;51.890;8.970;2023-01-08T23:53:37;97193.00;;;7.10
18782;BMP180;9519;51.890;8.970;2023-01-08T23:58:39;97185.00;;;7.10
